sensor_id;sensor_type;location;lat;lon;timestamp;P1;durP1;ratioP1;P2;durP2;ratioP2
13685;SDS011;6915;48.296;8.874;2022-09-09T00:01:37;1.97;;;0.93;;
13685;SDS011;6915;48.296;8.874;2022-09-09T00:04:14;3.93;;;1.07;;
13685;SDS011;6915;48.296;8.874;2022-09-09T00:06:49;4.70;;;1.00;;
13685;SDS011;6915;48.296;8.874;2022-09-09T00:09:24;3.07;;;0.93;;
13685;SDS011;6915;48.296;8.874;2022-09-09T00:11:54;2.73;;;0.87;;
13685;SDS011;6915;48.296;8.874;2022-09-09T00:14:25;0.87;;;0.77;;
13685;SDS011;6915;48.296;8.874;2022-09-09T00:17:03;2.20;;;1.03;;
13685;SDS011;6915;48.296;8.874;2022-09-09T00:19:37;4.43;;;0.93;;
13685;SDS011;6915;48.296;8.874;2022-09-09T00:22:14;3.20;;;1.10;;
13685;SDS011;6915;48.296;8.874;2022-09-09T00:24:44;1.57;;;0.90;;
13685;SDS011;6915;48.296;8.874;2022-09-09T00:27:15;3.90;;;1.00;;
13685;SDS011;6915;48.296;8.874;2022-09-09T00:29:51;3.40;;;0.90;;
13685;SDS011;6915;48.296;8.874;2022-09-09T00:32:21;4.23;;;1.10;;
13685;SDS011;6915;48.296;8.874;2022-09-09T00:34:51;1.33;;;0.93;;
13685;SDS011;6915;48.296;8.874;2022-09-09T00:37:22;2.33;;;1.10;;
13685;SDS011;6915;48.296;8.874;2022-09-09T00:39:51;2.30;;;0.93;;
13685;SDS011;6915;48.296;8.874;2022-09-09T00:42:24;3.67;;;0.90;;
13685;SDS011;6915;48.296;8.874;2022-09-09T00:44:56;2.03;;;0.70;;
13685;SDS011;6915;48.296;8.874;2022-09-09T00:47:43;3.80;;;0.83;;
13685;SDS011;6915;48.296;8.874;2022-09-09T00:50:25;1.03;;;0.63;;
13685;SDS011;6915;48.296;8.874;2022-09-09T00:53:05;4.10;;;0.97;;
13685;SDS011;6915;48.296;8.874;2022-09-09T00:55:47;2.97;;;0.90;;
13685;SDS011;6915;48.296;8.874;2022-09-09T00:58:16;4.23;;;0.93;;
13685;SDS011;6915;48.296;8.874;2022-09-09T01:00:44;2.77;;;1.00;;
13685;SDS011;6915;48.296;8.874;2022-09-09T01:03:18;4.30;;;0.90;;
13685;SDS011;6915;48.296;8.874;2022-09-09T01:05:51;1.90;;;0.93;;
13685;SDS011;6915;48.296;8.874;2022-09-09T01:11:33;1.50;;;0.80;;
13685;SDS011;6915;48.296;8.874;2022-09-09T01:14:18;2.27;;;1.30;;
13685;SDS011;6915;48.296;8.874;2022-09-09T01:16:56;3.07;;;1.00;;
13685;SDS011;6915;48.296;8.874;2022-09-09T01:19:27;2.00;;;0.77;;
13685;SDS011;6915;48.296;8.874;2022-09-09T01:22:08;1.37;;;0.80;;
13685;SDS011;6915;48.296;8.874;2022-09-09T01:24:42;1.23;;;0.80;;
13685;SDS011;6915;48.296;8.874;2022-09-09T01:27:32;1.40;;;0.60;;
13685;SDS011;6915;48.296;8.874;2022-09-09T01:29:59;4.43;;;1.00;;
13685;SDS011;6915;48.296;8.874;2022-09-09T01:32:37;6.60;;;1.37;;
13685;SDS011;6915;48.296;8.874;2022-09-09T01:35:07;3.10;;;0.97;;
13685;SDS011;6915;48.296;8.874;2022-09-09T01:37:39;2.30;;;0.90;;
13685;SDS011;6915;48.296;8.874;2022-09-09T01:40:07;1.27;;;0.67;;
13685;SDS011;6915;48.296;8.874;2022-09-09T01:42:35;1.47;;;0.70;;
13685;SDS011;6915;48.296;8.874;2022-09-09T01:45:02;2.60;;;0.80;;
13685;SDS011;6915;48.296;8.874;2022-09-09T01:47:31;5.37;;;0.90;;
13685;SDS011;6915;48.296;8.874;2022-09-09T01:49:58;1.73;;;0.97;;
13685;SDS011;6915;48.296;8.874;2022-09-09T01:52:27;1.70;;;1.20;;
13685;SDS011;6915;48.296;8.874;2022-09-09T01:54:55;2.50;;;1.47;;
13685;SDS011;6915;48.296;8.874;2022-09-09T01:57:23;4.50;;;1.03;;
13685;SDS011;6915;48.296;8.874;2022-09-09T02:00:00;1.83;;;0.80;;
13685;SDS011;6915;48.296;8.874;2022-09-09T02:02:32;3.40;;;0.90;;
13685;SDS011;6915;48.296;8.874;2022-09-09T02:05:04;2.37;;;0.87;;
13685;SDS011;6915;48.296;8.874;2022-09-09T02:07:39;2.20;;;0.93;;
13685;SDS011;6915;48.296;8.874;2022-09-09T02:10:09;1.67;;;0.90;;
13685;SDS011;6915;48.296;8.874;2022-09-09T02:12:39;1.53;;;0.90;;
13685;SDS011;6915;48.296;8.874;2022-09-09T02:15:13;3.40;;;1.03;;
13685;SDS011;6915;48.296;8.874;2022-09-09T02:17:45;2.30;;;1.00;;
13685;SDS011;6915;48.296;8.874;2022-09-09T02:20:15;1.73;;;0.80;;
13685;SDS011;6915;48.296;8.874;2022-09-09T02:22:45;1.33;;;0.70;;
13685;SDS011;6915;48.296;8.874;2022-09-09T02:25:15;2.33;;;0.87;;
13685;SDS011;6915;48.296;8.874;2022-09-09T02:27:45;2.20;;;1.20;;
13685;SDS011;6915;48.296;8.874;2022-09-09T02:30:16;1.77;;;0.70;;
13685;SDS011;6915;48.296;8.874;2022-09-09T02:32:44;3.27;;;1.00;;
13685;SDS011;6915;48.296;8.874;2022-09-09T02:35:15;4.00;;;1.30;;
13685;SDS011;6915;48.296;8.874;2022-09-09T02:37:45;2.10;;;0.83;;
13685;SDS011;6915;48.296;8.874;2022-09-09T02:40:13;1.30;;;0.87;;
13685;SDS011;6915;48.296;8.874;2022-09-09T02:42:41;2.90;;;1.03;;
13685;SDS011;6915;48.296;8.874;2022-09-09T02:45:10;6.33;;;1.17;;
13685;SDS011;6915;48.296;8.874;2022-09-09T02:47:41;2.83;;;0.90;;
13685;SDS011;6915;48.296;8.874;2022-09-09T02:50:14;2.03;;;0.70;;
13685;SDS011;6915;48.296;8.874;2022-09-09T02:52:53;3.70;;;0.90;;
13685;SDS011;6915;48.296;8.874;2022-09-09T02:55:28;1.87;;;0.90;;
13685;SDS011;6915;48.296;8.874;2022-09-09T02:58:05;2.03;;;1.00;;
13685;SDS011;6915;48.296;8.874;2022-09-09T03:00:36;8.10;;;1.90;;
13685;SDS011;6915;48.296;8.874;2022-09-09T03:03:07;3.93;;;1.00;;
13685;SDS011;6915;48.296;8.874;2022-09-09T03:05:34;5.47;;;1.20;;
13685;SDS011;6915;48.296;8.874;2022-09-09T03:08:02;4.33;;;1.30;;
13685;SDS011;6915;48.296;8.874;2022-09-09T03:10:30;3.43;;;1.17;;
13685;SDS011;6915;48.296;8.874;2022-09-09T03:12:57;1.93;;;1.20;;
13685;SDS011;6915;48.296;8.874;2022-09-09T03:15:25;4.30;;;1.27;;
13685;SDS011;6915;48.296;8.874;2022-09-09T03:17:54;1.83;;;0.90;;
13685;SDS011;6915;48.296;8.874;2022-09-09T03:20:23;4.73;;;1.33;;
13685;SDS011;6915;48.296;8.874;2022-09-09T03:22:50;4.23;;;1.30;;
13685;SDS011;6915;48.296;8.874;2022-09-09T03:25:17;1.63;;;0.93;;
13685;SDS011;6915;48.296;8.874;2022-09-09T03:27:44;4.90;;;1.23;;
13685;SDS011;6915;48.296;8.874;2022-09-09T03:30:11;2.83;;;1.27;;
13685;SDS011;6915;48.296;8.874;2022-09-09T03:32:38;4.67;;;1.40;;
13685;SDS011;6915;48.296;8.874;2022-09-09T03:35:06;2.47;;;1.00;;
13685;SDS011;6915;48.296;8.874;2022-09-09T03:37:34;4.07;;;1.30;;
13685;SDS011;6915;48.296;8.874;2022-09-09T03:40:04;2.13;;;1.10;;
13685;SDS011;6915;48.296;8.874;2022-09-09T03:42:32;2.60;;;1.30;;
13685;SDS011;6915;48.296;8.874;2022-09-09T03:44:58;2.20;;;1.00;;
13685;SDS011;6915;48.296;8.874;2022-09-09T03:47:25;4.87;;;1.20;;
13685;SDS011;6915;48.296;8.874;2022-09-09T03:49:52;4.47;;;1.43;;
13685;SDS011;6915;48.296;8.874;2022-09-09T03:52:19;2.07;;;1.20;;
13685;SDS011;6915;48.296;8.874;2022-09-09T03:54:48;5.70;;;1.00;;
13685;SDS011;6915;48.296;8.874;2022-09-09T03:57:15;5.20;;;1.10;;
13685;SDS011;6915;48.296;8.874;2022-09-09T03:59:42;1.93;;;1.00;;
13685;SDS011;6915;48.296;8.874;2022-09-09T04:02:09;2.13;;;1.20;;
13685;SDS011;6915;48.296;8.874;2022-09-09T04:04:36;4.93;;;1.20;;
13685;SDS011;6915;48.296;8.874;2022-09-09T04:07:03;5.37;;;1.10;;
13685;SDS011;6915;48.296;8.874;2022-09-09T04:09:32;3.97;;;1.20;;
13685;SDS011;6915;48.296;8.874;2022-09-09T04:12:01;3.03;;;1.10;;
13685;SDS011;6915;48.296;8.874;2022-09-09T04:14:29;2.93;;;1.20;;
13685;SDS011;6915;48.296;8.874;2022-09-09T04:16:55;2.57;;;1.33;;
13685;SDS011;6915;48.296;8.874;2022-09-09T04:19:24;2.63;;;1.30;;
13685;SDS011;6915;48.296;8.874;2022-09-09T04:21:51;4.00;;;1.17;;
13685;SDS011;6915;48.296;8.874;2022-09-09T04:24:18;4.03;;;1.50;;
13685;SDS011;6915;48.296;8.874;2022-09-09T04:26:46;3.57;;;1.27;;
13685;SDS011;6915;48.296;8.874;2022-09-09T04:29:15;1.50;;;1.40;;
13685;SDS011;6915;48.296;8.874;2022-09-09T04:31:42;2.13;;;1.37;;
13685;SDS011;6915;48.296;8.874;2022-09-09T04:34:09;3.40;;;1.67;;
13685;SDS011;6915;48.296;8.874;2022-09-09T04:36:36;5.20;;;1.40;;
13685;SDS011;6915;48.296;8.874;2022-09-09T04:39:04;2.97;;;1.60;;
13685;SDS011;6915;48.296;8.874;2022-09-09T04:41:31;3.27;;;1.30;;
13685;SDS011;6915;48.296;8.874;2022-09-09T04:43:58;1.97;;;1.50;;
13685;SDS011;6915;48.296;8.874;2022-09-09T04:46:27;2.33;;;1.27;;
13685;SDS011;6915;48.296;8.874;2022-09-09T04:48:54;2.90;;;1.40;;
13685;SDS011;6915;48.296;8.874;2022-09-09T04:51:21;4.23;;;1.47;;
13685;SDS011;6915;48.296;8.874;2022-09-09T04:53:47;3.07;;;1.50;;
13685;SDS011;6915;48.296;8.874;2022-09-09T04:56:16;3.23;;;1.47;;
13685;SDS011;6915;48.296;8.874;2022-09-09T04:58:44;2.63;;;1.47;;
13685;SDS011;6915;48.296;8.874;2022-09-09T05:01:11;2.83;;;1.37;;
13685;SDS011;6915;48.296;8.874;2022-09-09T05:03:41;4.77;;;1.40;;
13685;SDS011;6915;48.296;8.874;2022-09-09T05:06:10;4.13;;;1.60;;
13685;SDS011;6915;48.296;8.874;2022-09-09T05:08:40;3.40;;;1.23;;
13685;SDS011;6915;48.296;8.874;2022-09-09T05:11:15;2.50;;;1.60;;
13685;SDS011;6915;48.296;8.874;2022-09-09T05:13:43;1.53;;;1.43;;
13685;SDS011;6915;48.296;8.874;2022-09-09T05:16:11;3.90;;;1.70;;
13685;SDS011;6915;48.296;8.874;2022-09-09T05:18:38;3.93;;;1.53;;
13685;SDS011;6915;48.296;8.874;2022-09-09T05:21:07;3.27;;;1.60;;
13685;SDS011;6915;48.296;8.874;2022-09-09T05:23:34;3.47;;;1.60;;
13685;SDS011;6915;48.296;8.874;2022-09-09T05:26:02;2.83;;;1.53;;
13685;SDS011;6915;48.296;8.874;2022-09-09T05:28:29;2.73;;;1.50;;
13685;SDS011;6915;48.296;8.874;2022-09-09T05:30:57;2.97;;;1.53;;
13685;SDS011;6915;48.296;8.874;2022-09-09T05:33:25;2.67;;;1.40;;
13685;SDS011;6915;48.296;8.874;2022-09-09T05:35:56;1.93;;;1.40;;
13685;SDS011;6915;48.296;8.874;2022-09-09T05:38:25;2.77;;;1.20;;
13685;SDS011;6915;48.296;8.874;2022-09-09T05:40:52;2.37;;;1.20;;
13685;SDS011;6915;48.296;8.874;2022-09-09T05:43:21;2.37;;;1.37;;
13685;SDS011;6915;48.296;8.874;2022-09-09T05:45:58;2.40;;;1.40;;
13685;SDS011;6915;48.296;8.874;2022-09-09T05:48:27;1.77;;;1.40;;
13685;SDS011;6915;48.296;8.874;2022-09-09T05:50:55;3.30;;;1.57;;
13685;SDS011;6915;48.296;8.874;2022-09-09T05:53:22;2.50;;;1.43;;
13685;SDS011;6915;48.296;8.874;2022-09-09T05:55:50;2.03;;;1.40;;
13685;SDS011;6915;48.296;8.874;2022-09-09T05:58:23;4.50;;;1.37;;
13685;SDS011;6915;48.296;8.874;2022-09-09T06:00:50;1.83;;;1.30;;
13685;SDS011;6915;48.296;8.874;2022-09-09T06:03:17;2.37;;;1.30;;
13685;SDS011;6915;48.296;8.874;2022-09-09T06:05:56;4.37;;;1.33;;
13685;SDS011;6915;48.296;8.874;2022-09-09T06:08:23;2.27;;;1.37;;
13685;SDS011;6915;48.296;8.874;2022-09-09T06:10:52;1.80;;;1.50;;
13685;SDS011;6915;48.296;8.874;2022-09-09T06:13:19;1.40;;;1.27;;
13685;SDS011;6915;48.296;8.874;2022-09-09T06:15:49;2.17;;;1.30;;
13685;SDS011;6915;48.296;8.874;2022-09-09T06:18:17;3.23;;;1.60;;
13685;SDS011;6915;48.296;8.874;2022-09-09T06:20:53;4.27;;;2.17;;
13685;SDS011;6915;48.296;8.874;2022-09-09T06:23:20;2.67;;;1.80;;
13685;SDS011;6915;48.296;8.874;2022-09-09T06:25:47;2.33;;;1.50;;
13685;SDS011;6915;48.296;8.874;2022-09-09T06:28:17;4.67;;;1.83;;
13685;SDS011;6915;48.296;8.874;2022-09-09T06:30:44;2.50;;;1.70;;
13685;SDS011;6915;48.296;8.874;2022-09-09T06:33:12;3.47;;;2.03;;
13685;SDS011;6915;48.296;8.874;2022-09-09T06:35:40;4.43;;;1.67;;
13685;SDS011;6915;48.296;8.874;2022-09-09T06:38:07;3.00;;;1.90;;
13685;SDS011;6915;48.296;8.874;2022-09-09T06:40:34;2.80;;;1.60;;
13685;SDS011;6915;48.296;8.874;2022-09-09T06:43:02;4.87;;;2.03;;
13685;SDS011;6915;48.296;8.874;2022-09-09T06:45:31;3.00;;;1.73;;
13685;SDS011;6915;48.296;8.874;2022-09-09T06:47:58;4.70;;;1.63;;
13685;SDS011;6915;48.296;8.874;2022-09-09T06:50:25;4.60;;;1.43;;
13685;SDS011;6915;48.296;8.874;2022-09-09T06:52:52;4.63;;;2.03;;
13685;SDS011;6915;48.296;8.874;2022-09-09T06:55:19;3.87;;;1.70;;
13685;SDS011;6915;48.296;8.874;2022-09-09T06:57:46;3.67;;;2.00;;
13685;SDS011;6915;48.296;8.874;2022-09-09T07:00:13;4.70;;;1.73;;
13685;SDS011;6915;48.296;8.874;2022-09-09T07:02:42;2.20;;;1.23;;
13685;SDS011;6915;48.296;8.874;2022-09-09T07:05:09;2.37;;;1.33;;
13685;SDS011;6915;48.296;8.874;2022-09-09T07:07:37;3.40;;;1.80;;
13685;SDS011;6915;48.296;8.874;2022-09-09T07:10:04;2.07;;;1.30;;
13685;SDS011;6915;48.296;8.874;2022-09-09T07:12:32;1.97;;;1.23;;
13685;SDS011;6915;48.296;8.874;2022-09-09T07:14:59;2.60;;;1.20;;
13685;SDS011;6915;48.296;8.874;2022-09-09T07:17:26;3.03;;;1.23;;
13685;SDS011;6915;48.296;8.874;2022-09-09T07:19:55;3.50;;;1.00;;
13685;SDS011;6915;48.296;8.874;2022-09-09T07:22:23;2.50;;;1.40;;
13685;SDS011;6915;48.296;8.874;2022-09-09T07:24:50;4.67;;;1.70;;
13685;SDS011;6915;48.296;8.874;2022-09-09T07:27:17;3.30;;;0.90;;
13685;SDS011;6915;48.296;8.874;2022-09-09T07:29:44;3.90;;;1.30;;
13685;SDS011;6915;48.296;8.874;2022-09-09T07:32:11;3.90;;;1.20;;
13685;SDS011;6915;48.296;8.874;2022-09-09T07:34:38;3.43;;;1.13;;
13685;SDS011;6915;48.296;8.874;2022-09-09T07:37:07;2.27;;;1.20;;
13685;SDS011;6915;48.296;8.874;2022-09-09T07:39:36;1.80;;;1.13;;
13685;SDS011;6915;48.296;8.874;2022-09-09T07:42:04;2.80;;;1.70;;
13685;SDS011;6915;48.296;8.874;2022-09-09T07:44:32;1.97;;;1.30;;
13685;SDS011;6915;48.296;8.874;2022-09-09T07:47:00;3.77;;;1.23;;
13685;SDS011;6915;48.296;8.874;2022-09-09T07:49:27;2.83;;;1.53;;
13685;SDS011;6915;48.296;8.874;2022-09-09T07:51:55;2.23;;;1.20;;
13685;SDS011;6915;48.296;8.874;2022-09-09T07:54:24;3.50;;;1.20;;
13685;SDS011;6915;48.296;8.874;2022-09-09T07:56:51;1.70;;;1.10;;
13685;SDS011;6915;48.296;8.874;2022-09-09T07:59:19;3.90;;;1.50;;
13685;SDS011;6915;48.296;8.874;2022-09-09T08:01:47;3.37;;;1.30;;
13685;SDS011;6915;48.296;8.874;2022-09-09T08:04:17;5.23;;;1.37;;
13685;SDS011;6915;48.296;8.874;2022-09-09T08:06:46;3.67;;;1.20;;
13685;SDS011;6915;48.296;8.874;2022-09-09T08:09:14;3.93;;;1.17;;
13685;SDS011;6915;48.296;8.874;2022-09-09T08:11:43;3.07;;;0.97;;
13685;SDS011;6915;48.296;8.874;2022-09-09T08:14:11;3.67;;;1.50;;
13685;SDS011;6915;48.296;8.874;2022-09-09T08:16:40;4.13;;;1.27;;
13685;SDS011;6915;48.296;8.874;2022-09-09T08:19:08;5.57;;;1.23;;
13685;SDS011;6915;48.296;8.874;2022-09-09T08:21:36;3.23;;;1.20;;
13685;SDS011;6915;48.296;8.874;2022-09-09T08:24:05;2.30;;;1.10;;
13685;SDS011;6915;48.296;8.874;2022-09-09T08:26:34;2.03;;;0.90;;
13685;SDS011;6915;48.296;8.874;2022-09-09T08:29:04;2.83;;;0.90;;
13685;SDS011;6915;48.296;8.874;2022-09-09T08:31:32;2.77;;;1.03;;
13685;SDS011;6915;48.296;8.874;2022-09-09T08:34:02;3.47;;;0.90;;
13685;SDS011;6915;48.296;8.874;2022-09-09T08:36:32;2.43;;;0.80;;
13685;SDS011;6915;48.296;8.874;2022-09-09T08:39:00;4.03;;;1.00;;
13685;SDS011;6915;48.296;8.874;2022-09-09T08:41:37;2.40;;;0.83;;
13685;SDS011;6915;48.296;8.874;2022-09-09T08:44:14;2.03;;;0.77;;
13685;SDS011;6915;48.296;8.874;2022-09-09T08:46:51;3.03;;;0.80;;
13685;SDS011;6915;48.296;8.874;2022-09-09T08:49:35;4.77;;;1.00;;
13685;SDS011;6915;48.296;8.874;2022-09-09T08:52:12;1.47;;;0.77;;
13685;SDS011;6915;48.296;8.874;2022-09-09T08:54:43;3.57;;;0.97;;
13685;SDS011;6915;48.296;8.874;2022-09-09T08:57:14;3.67;;;1.00;;
13685;SDS011;6915;48.296;8.874;2022-09-09T08:59:46;2.03;;;0.80;;
13685;SDS011;6915;48.296;8.874;2022-09-09T09:02:14;2.17;;;0.70;;
13685;SDS011;6915;48.296;8.874;2022-09-09T09:04:50;4.03;;;0.80;;
13685;SDS011;6915;48.296;8.874;2022-09-09T09:07:28;4.77;;;0.90;;
13685;SDS011;6915;48.296;8.874;2022-09-09T09:10:10;3.00;;;1.07;;
13685;SDS011;6915;48.296;8.874;2022-09-09T09:12:42;4.13;;;0.60;;
13685;SDS011;6915;48.296;8.874;2022-09-09T09:15:16;5.70;;;1.00;;
13685;SDS011;6915;48.296;8.874;2022-09-09T09:17:47;4.03;;;0.97;;
13685;SDS011;6915;48.296;8.874;2022-09-09T09:20:15;3.13;;;0.70;;
13685;SDS011;6915;48.296;8.874;2022-09-09T09:22:47;2.63;;;0.70;;
13685;SDS011;6915;48.296;8.874;2022-09-09T09:25:16;1.95;;;0.75;;
13685;SDS011;6915;48.296;8.874;2022-09-09T09:27:48;2.83;;;0.70;;
13685;SDS011;6915;48.296;8.874;2022-09-09T09:30:23;5.30;;;0.90;;
13685;SDS011;6915;48.296;8.874;2022-09-09T09:32:54;4.28;;;1.05;;
13685;SDS011;6915;48.296;8.874;2022-09-09T09:35:26;2.83;;;0.90;;
13685;SDS011;6915;48.296;8.874;2022-09-09T09:37:54;1.95;;;1.00;;
13685;SDS011;6915;48.296;8.874;2022-09-09T09:40:22;2.28;;;0.73;;
13685;SDS011;6915;48.296;8.874;2022-09-09T09:42:54;3.42;;;0.98;;
13685;SDS011;6915;48.296;8.874;2022-09-09T09:45:28;2.53;;;0.70;;
13685;SDS011;6915;48.296;8.874;2022-09-09T09:48:00;3.88;;;1.00;;
13685;SDS011;6915;48.296;8.874;2022-09-09T09:50:29;4.28;;;0.82;;
13685;SDS011;6915;48.296;8.874;2022-09-09T09:52:58;2.95;;;0.93;;
13685;SDS011;6915;48.296;8.874;2022-09-09T09:55:27;4.20;;;1.02;;
13685;SDS011;6915;48.296;8.874;2022-09-09T09:58:06;1.85;;;0.75;;
13685;SDS011;6915;48.296;8.874;2022-09-09T10:00:48;1.55;;;0.70;;
13685;SDS011;6915;48.296;8.874;2022-09-09T10:03:23;3.05;;;0.90;;
13685;SDS011;6915;48.296;8.874;2022-09-09T10:05:52;2.75;;;0.80;;
13685;SDS011;6915;48.296;8.874;2022-09-09T10:08:21;2.72;;;0.85;;
13685;SDS011;6915;48.296;8.874;2022-09-09T10:10:52;2.20;;;0.80;;
13685;SDS011;6915;48.296;8.874;2022-09-09T10:13:29;2.78;;;0.73;;
13685;SDS011;6915;48.296;8.874;2022-09-09T10:16:06;2.45;;;0.75;;
13685;SDS011;6915;48.296;8.874;2022-09-09T10:18:54;3.20;;;1.00;;
13685;SDS011;6915;48.296;8.874;2022-09-09T10:21:31;2.22;;;0.63;;
13685;SDS011;6915;48.296;8.874;2022-09-09T10:27:28;2.08;;;0.60;;
13685;SDS011;6915;48.296;8.874;2022-09-09T10:30:12;3.33;;;0.70;;
13685;SDS011;6915;48.296;8.874;2022-09-09T10:32:48;2.15;;;0.70;;
13685;SDS011;6915;48.296;8.874;2022-09-09T10:35:22;1.70;;;0.70;;
13685;SDS011;6915;48.296;8.874;2022-09-09T10:37:58;1.25;;;0.68;;
13685;SDS011;6915;48.296;8.874;2022-09-09T10:40:40;2.55;;;0.75;;
13685;SDS011;6915;48.296;8.874;2022-09-09T10:43:19;2.08;;;0.85;;
13685;SDS011;6915;48.296;8.874;2022-09-09T10:45:58;2.58;;;0.82;;
13685;SDS011;6915;48.296;8.874;2022-09-09T10:48:37;1.98;;;0.90;;
13685;SDS011;6915;48.296;8.874;2022-09-09T10:51:22;2.22;;;0.80;;
13685;SDS011;6915;48.296;8.874;2022-09-09T10:53:53;3.75;;;0.70;;
13685;SDS011;6915;48.296;8.874;2022-09-09T10:56:31;1.58;;;0.60;;
13685;SDS011;6915;48.296;8.874;2022-09-09T10:59:00;2.13;;;0.77;;
13685;SDS011;6915;48.296;8.874;2022-09-09T11:01:32;3.03;;;0.70;;
13685;SDS011;6915;48.296;8.874;2022-09-09T11:04:09;2.20;;;0.73;;
13685;SDS011;6915;48.296;8.874;2022-09-09T11:06:42;1.50;;;0.70;;
13685;SDS011;6915;48.296;8.874;2022-09-09T11:09:18;2.10;;;0.50;;
13685;SDS011;6915;48.296;8.874;2022-09-09T11:11:50;1.58;;;0.40;;
13685;SDS011;6915;48.296;8.874;2022-09-09T11:14:21;2.53;;;0.65;;
13685;SDS011;6915;48.296;8.874;2022-09-09T11:16:56;1.52;;;0.65;;
13685;SDS011;6915;48.296;8.874;2022-09-09T11:19:30;2.28;;;0.57;;
13685;SDS011;6915;48.296;8.874;2022-09-09T11:22:00;1.70;;;0.60;;
13685;SDS011;6915;48.296;8.874;2022-09-09T11:24:31;2.30;;;0.95;;
13685;SDS011;6915;48.296;8.874;2022-09-09T11:27:03;1.85;;;0.50;;
13685;SDS011;6915;48.296;8.874;2022-09-09T11:29:41;4.20;;;0.65;;
13685;SDS011;6915;48.296;8.874;2022-09-09T11:32:53;0.93;;;0.40;;
13685;SDS011;6915;48.296;8.874;2022-09-09T11:35:33;0.82;;;0.35;;
13685;SDS011;6915;48.296;8.874;2022-09-09T11:38:18;1.13;;;0.45;;
13685;SDS011;6915;48.296;8.874;2022-09-09T11:40:54;5.03;;;0.60;;
13685;SDS011;6915;48.296;8.874;2022-09-09T11:43:25;1.05;;;0.40;;
13685;SDS011;6915;48.296;8.874;2022-09-09T11:45:57;1.98;;;0.60;;
13685;SDS011;6915;48.296;8.874;2022-09-09T11:48:29;2.00;;;0.60;;
13685;SDS011;6915;48.296;8.874;2022-09-09T11:51:03;1.13;;;0.60;;
13685;SDS011;6915;48.296;8.874;2022-09-09T11:53:33;1.83;;;0.57;;
13685;SDS011;6915;48.296;8.874;2022-09-09T11:56:01;1.50;;;0.70;;
13685;SDS011;6915;48.296;8.874;2022-09-09T11:58:33;3.05;;;0.70;;
13685;SDS011;6915;48.296;8.874;2022-09-09T12:01:16;2.17;;;0.57;;
13685;SDS011;6915;48.296;8.874;2022-09-09T12:07:01;1.63;;;0.50;;
13685;SDS011;6915;48.296;8.874;2022-09-09T12:09:41;1.65;;;0.50;;
13685;SDS011;6915;48.296;8.874;2022-09-09T12:12:21;1.70;;;0.60;;
13685;SDS011;6915;48.296;8.874;2022-09-09T12:17:55;1.83;;;0.30;;
13685;SDS011;6915;48.296;8.874;2022-09-09T12:20:26;3.22;;;0.50;;
13685;SDS011;6915;48.296;8.874;2022-09-09T12:26:05;4.40;;;0.77;;
13685;SDS011;6915;48.296;8.874;2022-09-09T12:28:46;1.88;;;0.50;;
13685;SDS011;6915;48.296;8.874;2022-09-09T12:31:22;2.53;;;0.70;;
13685;SDS011;6915;48.296;8.874;2022-09-09T12:33:53;2.47;;;0.60;;
13685;SDS011;6915;48.296;8.874;2022-09-09T12:36:22;1.90;;;0.60;;
13685;SDS011;6915;48.296;8.874;2022-09-09T12:38:54;3.65;;;0.80;;
13685;SDS011;6915;48.296;8.874;2022-09-09T12:41:25;2.20;;;0.60;;
13685;SDS011;6915;48.296;8.874;2022-09-09T12:44:02;3.00;;;0.80;;
13685;SDS011;6915;48.296;8.874;2022-09-09T12:46:33;1.15;;;0.55;;
13685;SDS011;6915;48.296;8.874;2022-09-09T12:49:02;2.15;;;0.65;;
13685;SDS011;6915;48.296;8.874;2022-09-09T12:51:31;3.80;;;0.77;;
13685;SDS011;6915;48.296;8.874;2022-09-09T12:54:01;2.97;;;0.65;;
13685;SDS011;6915;48.296;8.874;2022-09-09T12:56:30;1.52;;;0.60;;
13685;SDS011;6915;48.296;8.874;2022-09-09T12:58:58;3.10;;;0.70;;
13685;SDS011;6915;48.296;8.874;2022-09-09T13:01:27;3.33;;;0.63;;
13685;SDS011;6915;48.296;8.874;2022-09-09T13:03:55;2.10;;;0.77;;
13685;SDS011;6915;48.296;8.874;2022-09-09T13:06:23;2.50;;;0.57;;
13685;SDS011;6915;48.296;8.874;2022-09-09T13:08:51;1.25;;;0.32;;
13685;SDS011;6915;48.296;8.874;2022-09-09T13:11:22;3.97;;;0.63;;
13685;SDS011;6915;48.296;8.874;2022-09-09T13:13:54;2.05;;;0.68;;
13685;SDS011;6915;48.296;8.874;2022-09-09T13:16:24;4.55;;;0.80;;
13685;SDS011;6915;48.296;8.874;2022-09-09T13:18:56;2.05;;;0.40;;
13685;SDS011;6915;48.296;8.874;2022-09-09T13:21:31;2.35;;;0.70;;
13685;SDS011;6915;48.296;8.874;2022-09-09T13:23:59;1.80;;;0.50;;
13685;SDS011;6915;48.296;8.874;2022-09-09T13:26:29;1.23;;;0.30;;
13685;SDS011;6915;48.296;8.874;2022-09-09T13:29:07;2.22;;;0.50;;
13685;SDS011;6915;48.296;8.874;2022-09-09T13:31:44;1.27;;;0.50;;
13685;SDS011;6915;48.296;8.874;2022-09-09T13:34:12;1.85;;;0.40;;
13685;SDS011;6915;48.296;8.874;2022-09-09T13:36:40;3.05;;;0.57;;
13685;SDS011;6915;48.296;8.874;2022-09-09T13:39:12;1.00;;;0.50;;
13685;SDS011;6915;48.296;8.874;2022-09-09T13:41:44;2.25;;;0.60;;
13685;SDS011;6915;48.296;8.874;2022-09-09T13:44:17;3.28;;;0.70;;
13685;SDS011;6915;48.296;8.874;2022-09-09T13:46:58;3.55;;;0.60;;
13685;SDS011;6915;48.296;8.874;2022-09-09T13:49:30;1.42;;;0.52;;
13685;SDS011;6915;48.296;8.874;2022-09-09T13:52:08;1.23;;;0.47;;
13685;SDS011;6915;48.296;8.874;2022-09-09T13:54:36;1.30;;;0.50;;
13685;SDS011;6915;48.296;8.874;2022-09-09T13:57:05;1.20;;;0.40;;
13685;SDS011;6915;48.296;8.874;2022-09-09T13:59:40;1.88;;;0.60;;
13685;SDS011;6915;48.296;8.874;2022-09-09T14:02:07;1.27;;;0.43;;
13685;SDS011;6915;48.296;8.874;2022-09-09T14:04:34;1.75;;;0.50;;
13685;SDS011;6915;48.296;8.874;2022-09-09T14:07:02;1.98;;;0.57;;
13685;SDS011;6915;48.296;8.874;2022-09-09T14:09:30;2.00;;;0.40;;
13685;SDS011;6915;48.296;8.874;2022-09-09T14:11:57;2.47;;;0.70;;
13685;SDS011;6915;48.296;8.874;2022-09-09T14:14:26;2.28;;;0.40;;
13685;SDS011;6915;48.296;8.874;2022-09-09T14:16:54;2.92;;;0.60;;
13685;SDS011;6915;48.296;8.874;2022-09-09T14:19:21;2.33;;;0.50;;
13685;SDS011;6915;48.296;8.874;2022-09-09T14:21:48;1.67;;;0.50;;
13685;SDS011;6915;48.296;8.874;2022-09-09T14:24:15;4.88;;;0.50;;
13685;SDS011;6915;48.296;8.874;2022-09-09T14:26:42;2.30;;;0.57;;
13685;SDS011;6915;48.296;8.874;2022-09-09T14:29:09;1.33;;;0.70;;
13685;SDS011;6915;48.296;8.874;2022-09-09T14:31:37;0.95;;;0.52;;
13685;SDS011;6915;48.296;8.874;2022-09-09T14:34:04;4.00;;;0.60;;
13685;SDS011;6915;48.296;8.874;2022-09-09T14:36:32;3.67;;;0.50;;
13685;SDS011;6915;48.296;8.874;2022-09-09T14:38:59;2.42;;;0.70;;
13685;SDS011;6915;48.296;8.874;2022-09-09T14:41:26;2.50;;;0.57;;
13685;SDS011;6915;48.296;8.874;2022-09-09T14:43:54;1.50;;;0.50;;
13685;SDS011;6915;48.296;8.874;2022-09-09T14:46:22;2.10;;;0.50;;
13685;SDS011;6915;48.296;8.874;2022-09-09T14:48:51;2.67;;;0.73;;
13685;SDS011;6915;48.296;8.874;2022-09-09T14:51:19;2.38;;;0.57;;
13685;SDS011;6915;48.296;8.874;2022-09-09T14:53:48;2.90;;;0.88;;
13685;SDS011;6915;48.296;8.874;2022-09-09T14:56:18;4.78;;;0.80;;
13685;SDS011;6915;48.296;8.874;2022-09-09T14:58:47;1.55;;;0.50;;
13685;SDS011;6915;48.296;8.874;2022-09-09T15:01:15;2.25;;;0.43;;
13685;SDS011;6915;48.296;8.874;2022-09-09T15:03:44;1.73;;;0.40;;
13685;SDS011;6915;48.296;8.874;2022-09-09T15:06:17;2.45;;;0.60;;
13685;SDS011;6915;48.296;8.874;2022-09-09T15:08:45;2.47;;;0.30;;
13685;SDS011;6915;48.296;8.874;2022-09-09T15:11:13;0.68;;;0.30;;
13685;SDS011;6915;48.296;8.874;2022-09-09T15:13:41;0.60;;;0.30;;
13685;SDS011;6915;48.296;8.874;2022-09-09T15:16:10;0.75;;;0.22;;
13685;SDS011;6915;48.296;8.874;2022-09-09T15:18:38;0.88;;;0.20;;
13685;SDS011;6915;48.296;8.874;2022-09-09T15:21:08;0.65;;;0.10;;
13685;SDS011;6915;48.296;8.874;2022-09-09T15:23:37;1.25;;;0.35;;
13685;SDS011;6915;48.296;8.874;2022-09-09T15:26:04;0.70;;;0.22;;
13685;SDS011;6915;48.296;8.874;2022-09-09T15:28:32;0.60;;;0.28;;
13685;SDS011;6915;48.296;8.874;2022-09-09T15:31:04;0.68;;;0.30;;
13685;SDS011;6915;48.296;8.874;2022-09-09T15:33:32;1.50;;;0.37;;
13685;SDS011;6915;48.296;8.874;2022-09-09T15:36:11;2.75;;;0.22;;
13685;SDS011;6915;48.296;8.874;2022-09-09T15:38:41;0.98;;;0.20;;